Terminal Aerodrome Forecast
Issued by NWS

Home | Current Version | Previous Version | Text Only | Print | Product List | Glossary On
Versions: 1 2 3 4 5 6 7 8 9 10 11 12 13 14 15 16 17
000
FTUS44 KLIX 032335
TAFGPT
TAF
KGPT 032335Z 0400/0424 VRB04KT P6SM BKN250
     FM041500 12005KT P6SM SCT030 BKN250
     FM041800 17009KT P6SM VCSH SCT035 BKN250=

USA.gov is the U.S. government's official web portal to all federal, state and local government web resources and services.